createdAt,value
2019-01-04T00:01:20.626Z,1030.05
2019-01-04T00:02:21.193Z,1030.00
2019-01-04T00:04:06.163Z,1030.05
2019-01-04T00:05:06.727Z,1030.09
2019-01-04T00:06:51.694Z,1030.10
2019-01-04T00:07:52.262Z,1030.11
2019-01-04T00:09:37.178Z,1030.16
2019-01-04T00:10:37.744Z,1030.10
2019-01-04T00:12:22.661Z,1030.13
2019-01-04T00:13:23.227Z,1030.11
2019-01-04T00:15:08.144Z,1030.12
2019-01-04T00:16:08.711Z,1030.07
2019-01-04T00:17:53.628Z,1030.05
2019-01-04T00:18:54.244Z,1030.08
2019-01-04T00:20:39.209Z,1030.08
2019-01-04T00:21:39.829Z,1030.10
2019-01-04T00:23:24.744Z,1030.10
2019-01-04T00:24:25.312Z,1030.08
2019-01-04T00:26:10.270Z,1030.09
2019-01-04T00:27:10.836Z,1030.11
2019-01-04T00:28:55.753Z,1030.17
2019-01-04T00:29:56.362Z,1030.13
2019-01-04T00:31:41.380Z,1030.19
2019-01-04T00:32:41.947Z,1030.16
2019-01-04T00:34:26.862Z,1030.08
2019-01-04T00:35:27.431Z,1030.09
2019-01-04T00:37:12.348Z,1030.04
2019-01-04T00:38:12.912Z,1030.01
2019-01-04T00:39:57.927Z,1030.04
2019-01-04T00:40:58.495Z,1030.01
2019-01-04T00:42:43.410Z,1029.96
2019-01-04T00:43:43.980Z,1029.98
2019-01-04T00:45:28.895Z,1029.96
2019-01-04T00:46:29.458Z,1029.99
2019-01-04T00:48:14.375Z,1029.98
2019-01-04T00:49:14.941Z,1030.01
2019-01-04T00:50:59.857Z,1029.99
2019-01-04T00:52:00.423Z,1029.94
2019-01-04T00:53:45.341Z,1030.00
2019-01-04T00:54:45.907Z,1029.99
2019-01-04T00:56:30.821Z,1029.98
2019-01-04T00:57:31.389Z,1029.96
2019-01-04T00:59:16.353Z,1030.07
2019-01-04T01:00:16.919Z,1030.05
2019-01-04T01:02:01.835Z,1030.05
2019-01-04T01:03:02.404Z,1030.07
2019-01-04T01:04:47.361Z,1030.14
2019-01-04T01:05:47.926Z,1030.12
2019-01-04T01:07:32.857Z,1030.12
2019-01-04T01:08:33.409Z,1030.13
2019-01-04T01:10:18.326Z,1030.19
2019-01-04T01:11:18.898Z,1030.19
2019-01-04T01:13:03.816Z,1030.21
2019-01-04T01:14:04.375Z,1030.16
2019-01-04T01:15:49.295Z,1030.15
2019-01-04T01:16:49.857Z,1030.25
2019-01-04T01:18:34.774Z,1030.18
2019-01-04T01:19:35.339Z,1030.16
2019-01-04T01:21:20.255Z,1030.19
2019-01-04T01:22:20.872Z,1030.14
2019-01-04T01:24:05.787Z,1030.14
2019-01-04T01:25:06.503Z,1030.23
2019-01-04T01:26:51.416Z,1030.19
2019-01-04T01:27:51.982Z,1030.23
2019-01-04T01:29:36.898Z,1030.29
2019-01-04T01:30:37.468Z,1030.25
2019-01-04T01:32:22.422Z,1030.26
2019-01-04T01:33:22.989Z,1030.22
2019-01-04T01:35:07.955Z,1030.29
2019-01-04T01:36:08.523Z,1030.30
2019-01-04T01:37:53.438Z,1030.22
2019-01-04T01:38:54.004Z,1030.23
2019-01-04T01:40:38.920Z,1030.17
2019-01-04T01:41:39.486Z,1030.21
2019-01-04T01:43:24.401Z,1030.21
2019-01-04T01:44:24.967Z,1030.15
2019-01-04T01:46:09.883Z,1030.17
2019-01-04T01:47:10.449Z,1030.17
2019-01-04T01:48:55.364Z,1030.21
2019-01-04T01:49:55.930Z,1030.26
2019-01-04T01:51:40.846Z,1030.23
2019-01-04T01:52:41.462Z,1030.16
2019-01-04T01:54:26.377Z,1030.28
2019-01-04T01:55:26.947Z,1030.23
2019-01-04T01:57:11.860Z,1030.33
2019-01-04T01:58:12.425Z,1030.28
2019-01-04T01:59:57.392Z,1030.23
2019-01-04T02:00:57.999Z,1030.25
2019-01-04T02:02:42.917Z,1030.33
2019-01-04T02:03:43.481Z,1030.36
2019-01-04T02:05:28.396Z,1030.30
2019-01-04T02:06:28.962Z,1030.30
2019-01-04T02:08:13.879Z,1030.30
2019-01-04T02:09:14.448Z,1030.34
2019-01-04T02:10:59.361Z,1030.20
2019-01-04T02:11:59.931Z,1030.25
2019-01-04T02:13:44.842Z,1030.28
2019-01-04T02:14:45.408Z,1030.22
2019-01-04T02:16:30.324Z,1030.30
2019-01-04T02:17:30.891Z,1030.39
2019-01-04T02:19:15.805Z,1030.42
2019-01-04T02:20:16.371Z,1030.35
2019-01-04T02:22:01.288Z,1030.35
2019-01-04T02:23:01.854Z,1030.41
2019-01-04T02:24:46.770Z,1030.39
2019-01-04T02:25:47.337Z,1030.43
2019-01-04T02:27:32.251Z,1030.47
2019-01-04T02:28:32.818Z,1030.47
2019-01-04T02:30:17.743Z,1030.53
2019-01-04T02:31:18.304Z,1030.52
2019-01-04T02:33:03.267Z,1030.42
2019-01-04T02:34:03.832Z,1030.50
2019-01-04T02:35:48.748Z,1030.51
2019-01-04T02:36:49.314Z,1030.45
2019-01-04T02:38:34.280Z,1030.47
2019-01-04T02:39:34.846Z,1030.41
2019-01-04T02:41:19.762Z,1030.39
2019-01-04T02:42:20.328Z,1030.42
2019-01-04T02:44:05.245Z,1030.28
2019-01-04T02:45:05.810Z,1030.29
2019-01-04T02:46:50.727Z,1030.38
2019-01-04T02:47:51.292Z,1030.40
2019-01-04T02:49:36.208Z,1030.37
2019-01-04T02:50:36.779Z,1030.39
2019-01-04T02:52:21.690Z,1030.37
2019-01-04T02:53:22.298Z,1030.32
2019-01-04T02:55:07.215Z,1030.40
2019-01-04T02:56:07.780Z,1030.37
2019-01-04T02:57:52.697Z,1030.40
2019-01-04T02:58:53.264Z,1030.31
2019-01-04T03:00:38.183Z,1030.34
2019-01-04T03:01:38.786Z,1030.30
2019-01-04T03:03:23.850Z,1030.36
2019-01-04T03:04:24.417Z,1030.34
2019-01-04T03:06:09.484Z,1030.36
2019-01-04T03:07:10.049Z,1030.34
2019-01-04T03:08:54.972Z,1030.38
2019-01-04T03:09:55.570Z,1030.37
2019-01-04T03:11:40.487Z,1030.36
2019-01-04T03:12:41.052Z,1030.33
2019-01-04T03:14:26.019Z,1030.37
2019-01-04T03:15:26.589Z,1030.35
2019-01-04T03:17:11.500Z,1030.30
2019-01-04T03:18:12.065Z,1030.28
2019-01-04T03:19:56.981Z,1030.43
2019-01-04T03:20:57.547Z,1030.39
2019-01-04T03:22:42.463Z,1030.42
2019-01-04T03:23:43.078Z,1030.36
2019-01-04T03:25:27.995Z,1030.42
2019-01-04T03:26:28.561Z,1030.28
2019-01-04T03:28:13.525Z,1030.34
2019-01-04T03:29:14.092Z,1030.44
2019-01-04T03:30:59.007Z,1030.34
2019-01-04T03:31:59.573Z,1030.44
2019-01-04T03:33:44.490Z,1030.41
2019-01-04T03:34:45.102Z,1030.45
2019-01-04T03:36:30.013Z,1030.52
2019-01-04T03:37:30.578Z,1030.49
2019-01-04T03:39:15.493Z,1030.42
2019-01-04T03:40:16.059Z,1030.48
2019-01-04T03:42:00.982Z,1030.47
2019-01-04T03:43:01.583Z,1030.41
2019-01-04T03:44:46.550Z,1030.44
2019-01-04T03:45:47.115Z,1030.48
2019-01-04T03:47:32.030Z,1030.46
2019-01-04T03:48:32.596Z,1030.49
2019-01-04T03:50:17.562Z,1030.56
2019-01-04T03:51:18.127Z,1030.55
2019-01-04T03:53:03.044Z,1030.45
2019-01-04T03:54:03.607Z,1030.39
2019-01-04T03:55:48.523Z,1030.38
2019-01-04T03:56:49.089Z,1030.44
2019-01-04T03:58:34.006Z,1030.32
2019-01-04T03:59:34.614Z,1030.40
2019-01-04T04:01:19.530Z,1030.36
2019-01-04T04:02:20.095Z,1030.29
2019-01-04T04:04:05.010Z,1030.29
2019-01-04T04:05:05.580Z,1030.27
2019-01-04T04:06:50.491Z,1030.27
2019-01-04T04:07:51.060Z,1030.24
2019-01-04T04:09:36.024Z,1030.29
2019-01-04T04:10:36.682Z,1030.31
2019-01-04T04:12:21.646Z,1030.25
2019-01-04T04:13:22.218Z,1030.22
2019-01-04T04:15:07.127Z,1030.25
2019-01-04T04:16:07.697Z,1030.18
2019-01-04T04:17:52.609Z,1030.21
2019-01-04T04:18:53.223Z,1030.17
2019-01-04T04:20:38.140Z,1030.21
2019-01-04T04:21:38.706Z,1030.23
2019-01-04T04:23:23.620Z,1030.25
2019-01-04T04:24:24.238Z,1030.28
2019-01-04T04:26:09.151Z,1030.20
2019-01-04T04:27:09.716Z,1030.29
2019-01-04T04:28:54.632Z,1030.27
2019-01-04T04:29:55.241Z,1030.31
2019-01-04T04:31:40.112Z,1030.27
2019-01-04T04:32:40.678Z,1030.29
2019-01-04T04:34:25.595Z,1030.32
2019-01-04T04:35:26.164Z,1030.30
2019-01-04T04:37:11.167Z,1030.38
2019-01-04T04:38:11.735Z,1030.37
2019-01-04T04:39:56.699Z,1030.33
2019-01-04T04:40:57.264Z,1030.39
2019-01-04T04:42:42.328Z,1030.36
2019-01-04T04:43:42.894Z,1030.34
2019-01-04T04:45:27.809Z,1030.31
2019-01-04T04:46:28.375Z,1030.36
2019-01-04T04:48:13.289Z,1030.34
2019-01-04T04:49:13.854Z,1030.32
2019-01-04T04:50:58.783Z,1030.38
2019-01-04T04:51:59.336Z,1030.43
2019-01-04T04:53:44.310Z,1030.33
2019-01-04T04:54:44.866Z,1030.33
2019-01-04T04:56:29.782Z,1030.26
2019-01-04T04:57:30.348Z,1030.26
2019-01-04T04:59:15.263Z,1030.31
2019-01-04T05:00:15.828Z,1030.31
2019-01-04T05:02:00.792Z,1030.30
2019-01-04T05:03:01.361Z,1030.29
2019-01-04T05:04:46.274Z,1030.26
2019-01-04T05:05:46.839Z,1030.20
2019-01-04T05:07:31.759Z,1030.24
2019-01-04T05:08:32.319Z,1030.23
2019-01-04T05:10:17.285Z,1030.28
2019-01-04T05:11:17.861Z,1030.23
2019-01-04T05:13:02.766Z,1030.25
2019-01-04T05:14:03.333Z,1030.31
2019-01-04T05:15:48.296Z,1030.24
2019-01-04T05:16:48.862Z,1030.27
2019-01-04T05:18:33.839Z,1030.23
2019-01-04T05:19:34.396Z,1030.28
2019-01-04T05:21:19.309Z,1030.27
2019-01-04T05:22:19.875Z,1030.26
2019-01-04T05:24:04.845Z,1030.26
2019-01-04T05:25:05.412Z,1030.23
2019-01-04T05:26:50.322Z,1030.26
2019-01-04T05:27:51.040Z,1030.24
2019-01-04T05:29:35.950Z,1030.24
2019-01-04T05:30:36.515Z,1030.22
2019-01-04T05:32:21.431Z,1030.24
2019-01-04T05:33:21.995Z,1030.30
2019-01-04T05:35:06.910Z,1030.26
2019-01-04T05:36:07.477Z,1030.30
2019-01-04T05:37:52.392Z,1030.27
2019-01-04T05:38:52.956Z,1030.23
2019-01-04T05:40:37.922Z,1030.18
2019-01-04T05:41:38.487Z,1030.21
2019-01-04T05:43:23.402Z,1030.15
2019-01-04T05:44:24.018Z,1030.14
2019-01-04T05:46:08.932Z,1030.21
2019-01-04T05:47:09.547Z,1030.17
2019-01-04T05:48:54.461Z,1030.22
2019-01-04T05:49:55.077Z,1030.22
2019-01-04T05:51:39.993Z,1030.23
2019-01-04T05:52:40.903Z,1030.18
2019-01-04T05:54:25.755Z,1030.23
2019-01-04T05:55:26.321Z,1030.20
2019-01-04T05:57:11.291Z,1030.22
2019-01-04T05:58:11.895Z,1030.34
2019-01-04T05:59:56.809Z,1030.27
2019-01-04T06:00:57.375Z,1030.34
2019-01-04T06:02:42.333Z,1030.34
2019-01-04T06:03:42.949Z,1030.36
2019-01-04T06:05:27.861Z,1030.48
2019-01-04T06:06:28.427Z,1030.47
2019-01-04T06:08:13.342Z,1030.45
2019-01-04T06:09:13.908Z,1030.50
2019-01-04T06:10:58.822Z,1030.54
2019-01-04T06:11:59.386Z,1030.51
2019-01-04T06:13:44.302Z,1030.54
2019-01-04T06:14:44.867Z,1030.62
2019-01-04T06:16:29.833Z,1030.69
2019-01-04T06:17:30.403Z,1030.71
2019-01-04T06:19:15.312Z,1030.78
2019-01-04T06:20:15.880Z,1030.81
2019-01-04T06:22:00.793Z,1030.77
2019-01-04T06:23:01.408Z,1030.76
2019-01-04T06:24:46.472Z,1030.77
2019-01-04T06:25:47.087Z,1030.77
2019-01-04T06:27:32.000Z,1030.74
2019-01-04T06:28:32.571Z,1030.76
2019-01-04T06:30:17.531Z,1030.85
2019-01-04T06:31:18.248Z,1030.88
2019-01-04T06:33:03.161Z,1030.91
2019-01-04T06:34:03.727Z,1030.90
2019-01-04T06:35:48.941Z,1030.92
2019-01-04T06:36:49.506Z,1031.00
2019-01-04T06:38:34.422Z,1030.95
2019-01-04T06:39:34.986Z,1030.92
2019-01-04T06:41:19.901Z,1031.01
2019-01-04T06:42:20.468Z,1030.94
2019-01-04T06:44:05.431Z,1031.01
2019-01-04T06:45:05.999Z,1031.03
2019-01-04T06:46:50.917Z,1031.01
2019-01-04T06:47:51.569Z,1031.06
2019-01-04T06:49:36.483Z,1031.07
2019-01-04T06:50:37.403Z,1030.99
2019-01-04T06:52:22.295Z,1031.09
2019-01-04T06:53:22.860Z,1031.04
2019-01-04T06:55:07.980Z,1031.07
2019-01-04T06:56:08.540Z,1031.08
2019-01-04T06:57:53.453Z,1031.07
2019-01-04T06:58:54.018Z,1031.10
2019-01-04T07:00:38.935Z,1031.17
2019-01-04T07:01:39.498Z,1031.16
2019-01-04T07:03:24.414Z,1031.24
2019-01-04T07:04:24.979Z,1031.26
2019-01-04T07:06:09.895Z,1031.24
2019-01-04T07:07:10.458Z,1031.31
2019-01-04T07:08:55.373Z,1031.22
2019-01-04T07:09:55.938Z,1031.29
2019-01-04T07:11:40.852Z,1031.24
2019-01-04T07:12:41.417Z,1031.33
2019-01-04T07:14:26.333Z,1031.34
2019-01-04T07:15:26.898Z,1031.41
2019-01-04T07:17:11.811Z,1031.39
2019-01-04T07:18:12.376Z,1031.37
2019-01-04T07:19:57.344Z,1031.37
2019-01-04T07:20:57.909Z,1031.45
2019-01-04T07:22:42.821Z,1031.45
2019-01-04T07:23:43.479Z,1031.44
2019-01-04T07:25:28.392Z,1031.53
2019-01-04T07:26:29.007Z,1031.56
2019-01-04T07:28:13.922Z,1031.64
2019-01-04T07:29:14.487Z,1031.71
2019-01-04T07:30:59.451Z,1031.63
2019-01-04T07:32:00.018Z,1031.61
2019-01-04T07:33:44.930Z,1031.62
2019-01-04T07:34:45.495Z,1031.64
2019-01-04T07:36:30.411Z,1031.63
2019-01-04T07:37:31.027Z,1031.60
2019-01-04T07:39:15.940Z,1031.68
2019-01-04T07:40:16.504Z,1031.65
2019-01-04T07:42:01.419Z,1031.65
2019-01-04T07:43:01.985Z,1031.67
2019-01-04T07:44:46.944Z,1031.69
2019-01-04T07:45:47.506Z,1031.72
2019-01-04T07:47:32.471Z,1031.74
2019-01-04T07:48:33.038Z,1031.78
2019-01-04T07:50:17.951Z,1031.76
2019-01-04T07:51:18.516Z,1031.79
2019-01-04T07:53:03.479Z,1031.80
2019-01-04T07:54:04.046Z,1031.88
2019-01-04T07:55:48.990Z,1031.84
2019-01-04T07:56:49.567Z,1031.92
2019-01-04T07:58:34.482Z,1031.86
2019-01-04T07:59:35.096Z,1031.78
2019-01-04T08:01:20.010Z,1031.82
2019-01-04T08:02:20.625Z,1031.85
2019-01-04T08:04:05.538Z,1031.79
2019-01-04T08:05:06.104Z,1031.92
2019-01-04T08:06:51.020Z,1031.96
2019-01-04T08:07:51.583Z,1031.94
2019-01-04T08:09:36.548Z,1032.02
2019-01-04T08:10:37.112Z,1032.04
2019-01-04T08:12:22.027Z,1031.96
2019-01-04T08:13:22.591Z,1032.01
2019-01-04T08:15:07.508Z,1031.97
2019-01-04T08:16:08.121Z,1032.08
2019-01-04T08:17:53.036Z,1031.94
2019-01-04T08:18:53.599Z,1032.05
2019-01-04T08:20:38.564Z,1032.08
2019-01-04T08:21:39.131Z,1031.99
2019-01-04T08:23:24.044Z,1032.04
2019-01-04T08:24:24.609Z,1032.09
2019-01-04T08:26:09.575Z,1032.08
2019-01-04T08:27:10.138Z,1032.04
2019-01-04T08:28:55.054Z,1032.07
2019-01-04T08:29:55.617Z,1032.13
2019-01-04T08:31:40.533Z,1032.07
2019-01-04T08:32:41.097Z,1032.15
2019-01-04T08:34:26.062Z,1032.06
2019-01-04T08:35:26.629Z,1032.08
2019-01-04T08:37:11.541Z,1032.17
2019-01-04T08:38:12.106Z,1032.11
2019-01-04T08:39:57.020Z,1032.17
2019-01-04T08:40:57.586Z,1032.22
2019-01-04T08:42:42.501Z,1032.18
2019-01-04T08:43:43.064Z,1032.23
2019-01-04T08:45:27.978Z,1032.23
2019-01-04T08:46:28.543Z,1032.28
2019-01-04T08:48:13.458Z,1032.24
2019-01-04T08:49:14.026Z,1032.32
2019-01-04T08:50:58.980Z,1032.39
2019-01-04T08:51:59.546Z,1032.49
2019-01-04T08:53:44.459Z,1032.43
2019-01-04T08:54:45.078Z,1032.49
2019-01-04T08:56:29.988Z,1032.47
2019-01-04T08:57:30.602Z,1032.49
2019-01-04T08:59:15.518Z,1032.45
2019-01-04T09:00:16.080Z,1032.54
2019-01-04T09:02:00.995Z,1032.43
2019-01-04T09:03:01.610Z,1032.58
2019-01-04T09:04:46.541Z,1032.56
2019-01-04T09:05:47.104Z,1032.59
2019-01-04T09:07:32.022Z,1032.56
2019-01-04T09:08:32.583Z,1032.58
2019-01-04T09:10:17.497Z,1032.65
2019-01-04T09:11:18.062Z,1032.68
2019-01-04T09:13:02.977Z,1032.68
2019-01-04T09:14:03.542Z,1032.69
2019-01-04T09:15:48.458Z,1032.69
2019-01-04T09:16:49.020Z,1032.74
2019-01-04T09:18:33.985Z,1032.73
2019-01-04T09:19:34.550Z,1032.77
2019-01-04T09:21:19.536Z,1032.75
2019-01-04T09:22:20.103Z,1032.84
2019-01-04T09:24:05.019Z,1032.83
2019-01-04T09:25:05.623Z,1032.81
2019-01-04T09:26:50.537Z,1032.88
2019-01-04T09:27:51.105Z,1032.81
2019-01-04T09:29:36.023Z,1032.85
2019-01-04T09:30:36.584Z,1032.92
2019-01-04T09:32:21.533Z,1032.91
2019-01-04T09:33:22.097Z,1032.83
2019-01-04T09:35:07.012Z,1032.88
2019-01-04T09:36:07.577Z,1032.90
2019-01-04T09:37:52.491Z,1032.94
2019-01-04T09:38:53.057Z,1032.97
2019-01-04T09:40:38.004Z,1033.09
2019-01-04T09:41:38.538Z,1033.15
2019-01-04T09:43:23.497Z,1033.04
2019-01-04T09:44:24.105Z,1033.05
2019-01-04T09:46:09.010Z,1033.03
2019-01-04T09:48:00.631Z,1033.03
2019-01-04T09:52:57.285Z,1033.07
2019-01-04T09:53:57.902Z,1033.04
2019-01-04T09:55:42.855Z,1033.11
2019-01-04T09:56:43.419Z,1033.05
2019-01-04T09:58:28.334Z,1033.07
2019-01-04T09:59:28.897Z,1033.07
2019-01-04T10:01:13.861Z,1033.10
2019-01-04T10:02:14.428Z,1033.05
2019-01-04T10:03:59.340Z,1033.06
2019-01-04T10:04:59.905Z,1033.07
2019-01-04T10:06:44.968Z,1033.07
2019-01-04T10:07:45.584Z,1033.07
2019-01-04T10:09:30.497Z,1033.16
2019-01-04T10:10:31.104Z,1033.09
2019-01-04T10:12:16.018Z,1033.04
2019-01-04T10:13:16.583Z,1033.08
2019-01-04T10:15:01.549Z,1033.07
2019-01-04T10:16:02.113Z,1033.12
2019-01-04T10:17:47.029Z,1033.10
2019-01-04T10:18:47.592Z,1033.14
2019-01-04T10:20:32.507Z,1033.16
2019-01-04T10:21:33.072Z,1033.26
2019-01-04T10:23:18.038Z,1033.27
2019-01-04T10:24:18.606Z,1033.24
2019-01-04T10:26:03.567Z,1033.23
2019-01-04T10:27:04.132Z,1033.21
2019-01-04T10:28:49.048Z,1033.22
2019-01-04T10:29:49.615Z,1033.19
2019-01-04T10:31:34.581Z,1033.19
2019-01-04T10:32:35.145Z,1033.17
2019-01-04T10:34:20.060Z,1033.14
2019-01-04T10:35:20.627Z,1033.17
2019-01-04T10:38:29.062Z,1033.12
2019-01-04T10:39:29.677Z,1033.02
2019-01-04T10:41:14.591Z,1033.07
2019-01-04T10:42:15.206Z,1033.02
2019-01-04T10:44:00.120Z,1033.08
2019-01-04T10:45:00.734Z,1033.08
2019-01-04T10:46:45.648Z,1033.09
2019-01-04T10:47:46.213Z,1033.06
2019-01-04T10:49:31.131Z,1033.13
2019-01-04T10:50:31.694Z,1033.14
2019-01-04T10:52:16.613Z,1033.15
2019-01-04T10:53:17.173Z,1033.01
2019-01-04T10:55:02.089Z,1033.05
2019-01-04T10:56:02.680Z,1033.03
2019-01-04T10:57:47.569Z,1033.07
2019-01-04T10:58:48.184Z,1033.08
2019-01-04T11:00:33.102Z,1033.04
2019-01-04T11:01:33.714Z,1033.00
2019-01-04T11:03:18.629Z,1033.00
2019-01-04T11:04:19.244Z,1033.04
2019-01-04T11:06:04.159Z,1033.03
2019-01-04T11:07:04.726Z,1033.01
2019-01-04T11:08:49.641Z,1032.98
2019-01-04T11:09:50.208Z,1033.00
2019-01-04T11:12:15.954Z,1032.96
2019-01-04T11:13:15.803Z,1032.94
2019-01-04T11:15:00.736Z,1032.94
2019-01-04T11:16:01.332Z,1032.88
2019-01-04T11:17:46.247Z,1032.90
2019-01-04T11:18:46.812Z,1032.88
2019-01-04T11:20:31.728Z,1032.85
2019-01-04T11:21:32.342Z,1032.88
2019-01-04T11:25:28.952Z,1032.85
2019-01-04T11:26:29.517Z,1032.78
2019-01-04T11:28:14.431Z,1032.82
2019-01-04T11:29:14.996Z,1032.82
2019-01-04T11:30:59.960Z,1032.80
2019-01-04T11:32:00.575Z,1032.78
2019-01-04T11:33:45.489Z,1032.83
2019-01-04T11:34:46.054Z,1032.81
2019-01-04T11:36:30.969Z,1032.78
2019-01-04T11:37:31.535Z,1032.83
2019-01-04T11:39:16.501Z,1032.79
2019-01-04T11:40:17.068Z,1032.77
2019-01-04T11:42:01.982Z,1032.77
2019-01-04T11:43:02.547Z,1032.78
2019-01-04T11:44:47.463Z,1032.77
2019-01-04T11:45:48.028Z,1032.72
2019-01-04T11:53:18.829Z,1032.67
2019-01-04T11:54:22.432Z,1032.63
2019-01-04T11:56:07.383Z,1032.66
2019-01-04T11:57:07.947Z,1032.58
2019-01-04T11:58:52.862Z,1032.50
2019-01-04T11:59:53.427Z,1032.53
2019-01-04T12:01:38.341Z,1032.52
2019-01-04T12:02:38.909Z,1032.53
2019-01-04T12:04:23.971Z,1032.50
2019-01-04T12:05:24.536Z,1032.50
2019-01-04T12:07:09.451Z,1032.41
2019-01-04T12:11:11.392Z,1032.37
2019-01-04T12:12:56.304Z,1032.37
2019-01-04T12:13:56.870Z,1032.35
2019-01-04T12:24:37.271Z,1032.37
2019-01-04T12:31:01.375Z,1032.18
2019-01-04T12:32:02.039Z,1032.19
2019-01-04T12:33:46.951Z,1032.23
2019-01-04T12:34:47.667Z,1032.14
2019-01-04T12:36:32.577Z,1032.07
2019-01-04T12:37:33.140Z,1032.06
2019-01-04T12:39:18.068Z,1032.14
2019-01-04T12:40:18.712Z,1031.98
2019-01-04T12:42:03.627Z,1032.04
2019-01-04T12:43:04.195Z,1032.06
2019-01-04T12:44:49.108Z,1032.06
2019-01-04T12:45:49.673Z,1032.05
2019-01-04T12:47:34.588Z,1032.09
2019-01-04T12:48:35.154Z,1032.07
2019-01-04T12:49:57.699Z,1032.05
2019-01-04T12:50:58.310Z,1032.04
2019-01-04T12:52:43.273Z,1032.09
2019-01-04T12:53:43.840Z,1032.08
2019-01-04T12:55:28.754Z,1032.05
2019-01-04T12:56:29.319Z,1032.11
2019-01-04T12:58:14.235Z,1032.09
2019-01-04T12:59:14.803Z,1032.01
2019-01-04T13:00:59.717Z,1032.06
2019-01-04T13:02:00.283Z,1032.12
2019-01-04T13:03:45.198Z,1032.06
2019-01-04T13:04:45.764Z,1032.10
2019-01-04T13:06:30.682Z,1032.13
2019-01-04T13:07:31.245Z,1032.12
2019-01-04T13:09:16.211Z,1032.07
2019-01-04T13:10:16.779Z,1032.14
2019-01-04T13:12:01.744Z,1032.10
2019-01-04T13:13:02.311Z,1032.13
2019-01-04T13:14:47.275Z,1032.13
2019-01-04T13:15:47.843Z,1032.12
2019-01-04T13:17:32.757Z,1031.99
2019-01-04T13:18:33.325Z,1032.15
2019-01-04T13:20:18.240Z,1032.09
2019-01-04T13:21:18.806Z,1032.13
2019-01-04T13:23:03.722Z,1032.05
2019-01-04T13:24:04.292Z,1032.18
2019-01-04T13:25:49.352Z,1032.09
2019-01-04T13:27:07.685Z,1032.11
2019-01-04T13:28:08.255Z,1032.10
2019-01-04T13:34:12.706Z,1032.04
2019-01-04T13:35:13.271Z,1032.08
2019-01-04T13:36:58.187Z,1032.05
2019-01-04T13:37:58.753Z,1032.02
2019-01-04T13:39:43.669Z,1032.00
2019-01-04T13:40:44.235Z,1032.07
2019-01-04T13:43:21.363Z,1032.02
2019-01-04T13:46:13.154Z,1032.03
2019-01-04T13:47:13.720Z,1031.94
2019-01-04T13:48:58.632Z,1031.96
2019-01-04T13:49:59.198Z,1032.00
2019-01-04T13:51:44.115Z,1031.97
2019-01-04T13:52:44.681Z,1031.96
2019-01-04T13:54:29.603Z,1031.92
2019-01-04T13:55:30.257Z,1031.97
2019-01-04T13:57:15.222Z,1031.96
2019-01-04T13:58:15.789Z,1032.02
2019-01-04T14:00:00.706Z,1032.04
2019-01-04T14:01:01.274Z,1031.95
2019-01-04T14:02:46.190Z,1031.95
2019-01-04T14:03:46.757Z,1031.90
2019-01-04T14:05:31.672Z,1031.96
2019-01-04T14:06:32.240Z,1031.90
2019-01-04T14:08:17.157Z,1031.94
2019-01-04T14:09:17.724Z,1031.98
2019-01-04T14:11:02.642Z,1031.94
2019-01-04T14:12:03.210Z,1031.98
2019-01-04T14:13:48.175Z,1031.98
2019-01-04T14:14:48.745Z,1031.97
2019-01-04T14:16:33.659Z,1032.01
2019-01-04T14:17:34.227Z,1032.10
2019-01-04T14:19:19.193Z,1031.96
2019-01-04T14:20:19.761Z,1031.97
2019-01-04T14:22:04.680Z,1032.04
2019-01-04T14:23:05.243Z,1031.93
2019-01-04T14:24:50.162Z,1032.02
2019-01-04T14:25:50.734Z,1032.06
2019-01-04T14:27:35.737Z,1032.10
2019-01-04T14:28:36.304Z,1032.14
2019-01-04T14:30:21.271Z,1032.09
2019-01-04T14:31:21.840Z,1032.12
2019-01-04T14:33:06.903Z,1032.06
2019-01-04T14:34:07.470Z,1032.12
2019-01-04T14:35:52.537Z,1032.02
2019-01-04T14:36:53.147Z,1032.11
2019-01-04T14:38:38.062Z,1032.08
2019-01-04T14:39:38.631Z,1032.06
2019-01-04T14:41:23.594Z,1032.04
2019-01-04T14:42:24.163Z,1032.03
2019-01-04T14:44:09.128Z,1032.07
2019-01-04T14:45:09.700Z,1032.09
2019-01-04T14:46:59.708Z,1032.06
2019-01-04T14:48:00.273Z,1032.01
2019-01-04T14:49:45.239Z,1032.11
2019-01-04T14:50:45.806Z,1032.07
2019-01-04T14:52:30.824Z,1032.04
2019-01-04T14:53:31.393Z,1032.00
2019-01-04T14:55:16.308Z,1031.99
2019-01-04T14:56:16.876Z,1031.96
2019-01-04T14:58:01.795Z,1032.02
2019-01-04T14:59:02.403Z,1032.05
2019-01-04T15:00:47.321Z,1032.04
2019-01-04T15:01:47.890Z,1032.04
2019-01-04T15:03:32.804Z,1032.03
2019-01-04T15:04:33.371Z,1032.10
2019-01-04T15:06:18.289Z,1032.14
2019-01-04T15:07:18.856Z,1032.13
2019-01-04T15:09:03.874Z,1032.20
2019-01-04T15:10:04.443Z,1032.13
2019-01-04T15:11:49.509Z,1032.11
2019-01-04T15:12:50.080Z,1032.14
2019-01-04T15:14:34.991Z,1032.19
2019-01-04T15:15:35.558Z,1032.11
2019-01-04T15:17:20.478Z,1032.14
2019-01-04T15:18:21.043Z,1032.16
2019-01-04T15:20:05.962Z,1032.18
2019-01-04T15:21:06.530Z,1032.20
2019-01-04T15:22:51.447Z,1032.17
2019-01-04T15:23:52.014Z,1032.13
2019-01-04T15:25:36.982Z,1032.19
2019-01-04T15:26:37.552Z,1032.15
2019-01-04T15:28:22.467Z,1032.16
2019-01-04T15:29:23.085Z,1032.19
2019-01-04T15:31:08.050Z,1032.22
2019-01-04T15:32:08.621Z,1032.20
2019-01-04T15:33:53.538Z,1032.17
2019-01-04T15:34:54.147Z,1032.21
2019-01-04T15:36:39.064Z,1032.15
2019-01-04T15:37:39.632Z,1032.19
2019-01-04T15:39:24.549Z,1032.24
2019-01-04T15:40:25.117Z,1032.12
2019-01-04T15:42:10.037Z,1032.22
2019-01-04T15:43:10.604Z,1032.21
2019-01-04T15:44:55.570Z,1032.27
2019-01-04T15:45:56.140Z,1032.29
2019-01-04T15:47:41.056Z,1032.27
2019-01-04T15:48:41.624Z,1032.23
2019-01-04T15:50:26.593Z,1032.35
2019-01-04T15:51:27.159Z,1032.33
2019-01-04T15:53:12.077Z,1032.27
2019-01-04T15:54:12.645Z,1032.28
2019-01-04T15:55:57.616Z,1032.36
2019-01-04T15:56:58.182Z,1032.34
2019-01-04T15:58:43.152Z,1032.34
2019-01-04T15:59:43.721Z,1032.42
2019-01-04T16:01:28.639Z,1032.39
2019-01-04T16:02:29.303Z,1032.31
2019-01-04T16:04:14.220Z,1032.32
2019-01-04T16:05:14.789Z,1032.38
2019-01-04T16:06:59.706Z,1032.31
2019-01-04T16:08:00.278Z,1032.39
2019-01-04T16:09:45.197Z,1032.33
2019-01-04T16:10:45.765Z,1032.40
2019-01-04T16:12:30.686Z,1032.35
2019-01-04T16:13:31.253Z,1032.37
2019-01-04T16:15:16.222Z,1032.36
2019-01-04T16:16:16.832Z,1032.30
2019-01-04T16:18:01.809Z,1032.33
2019-01-04T16:19:02.385Z,1032.38
2019-01-04T16:20:47.298Z,1032.42
2019-01-04T16:21:47.879Z,1032.39
2019-01-04T16:23:32.786Z,1032.40
2019-01-04T16:24:33.357Z,1032.47
2019-01-04T16:26:18.274Z,1032.39
2019-01-04T16:27:18.844Z,1032.44
2019-01-04T16:29:03.762Z,1032.41
2019-01-04T16:30:04.483Z,1032.49
2019-01-04T16:31:49.399Z,1032.47
2019-01-04T16:32:49.968Z,1032.48
2019-01-04T16:34:34.985Z,1032.45
2019-01-04T16:35:35.570Z,1032.46
2019-01-04T16:37:20.473Z,1032.47
2019-01-04T16:38:21.045Z,1032.44
2019-01-04T16:40:05.963Z,1032.49
2019-01-04T16:41:06.534Z,1032.50
2019-01-04T16:42:51.500Z,1032.49
2019-01-04T16:43:52.070Z,1032.49
2019-01-04T16:45:36.987Z,1032.54
2019-01-04T16:46:37.558Z,1032.55
2019-01-04T16:48:22.475Z,1032.57
2019-01-04T16:49:23.044Z,1032.61
2019-01-04T16:51:07.963Z,1032.58
2019-01-04T16:52:08.581Z,1032.60
2019-01-04T16:53:53.548Z,1032.54
2019-01-04T16:54:54.115Z,1032.55
2019-01-04T16:56:39.032Z,1032.51
2019-01-04T16:57:39.602Z,1032.58
2019-01-04T16:59:24.520Z,1032.64
2019-01-04T17:00:25.088Z,1032.61
2019-01-04T17:02:10.006Z,1032.66
2019-01-04T17:03:10.575Z,1032.61
2019-01-04T17:04:55.492Z,1032.67
2019-01-04T17:05:56.062Z,1032.64
2019-01-04T17:07:40.979Z,1032.63
2019-01-04T17:08:41.597Z,1032.67
2019-01-04T17:10:26.562Z,1032.66
2019-01-04T17:11:27.128Z,1032.67
2019-01-04T17:13:12.046Z,1032.64
2019-01-04T17:14:12.612Z,1032.71
2019-01-04T17:15:57.530Z,1032.69
2019-01-04T17:16:58.097Z,1032.61
2019-01-04T17:18:43.014Z,1032.65